Time;durP1;ratioP1;P1;durP2;ratioP2;P2;SDS_P1;SDS_P2;PMS_P1;PMS_P2;Temp;Humidity;BMP_temperature;BMP_pressure;BME280_temperature;BME280_humidity;BME280_pressure;Samples;Min_cycle;Max_cycle;Signal;HPM_P1;HPM_P2
2023/07/14 00:00:35;;;;;;;12.27;8.07;;;;;;;;;;5022855;28;20042;-75
2023/07/14 00:03:02;;;;;;;9.85;7.38;;;;;;;;;;5026169;28;20357;-75
2023/07/14 00:05:32;;;;;;;14.05;8.45;;;;;;;;;;5027982;28;20041;-75
2023/07/14 00:07:58;;;;;;;13.00;8.50;;;;;;;;;;5035283;28;20045;-75
2023/07/14 00:10:32;;;;;;;12.48;8.65;;;;;;;;;;5034039;28;20124;-75
2023/07/14 00:13:02;;;;;;;11.13;7.68;;;;;;;;;;5034961;28;20080;-75
2023/07/14 00:15:30;;;;;;;15.27;9.05;;;;;;;;;;5032838;28;20048;-75
2023/07/14 00:17:58;;;;;;;15.05;8.77;;;;;;;;;;5034396;28;20038;-75
2023/07/14 00:20:28;;;;;;;12.75;8.80;;;;;;;;;;5034446;28;20076;-75
2023/07/14 00:22:55;;;;;;;13.98;9.07;;;;;;;;;;5033933;28;20038;-75
2023/07/14 00:25:22;;;;;;;13.25;8.80;;;;;;;;;;5034172;28;20041;-75
2023/07/14 00:27:49;;;;;;;14.65;9.18;;;;;;;;;;5032803;28;20084;-75
2023/07/14 00:30:18;;;;;;;11.43;8.85;;;;;;;;;;5031579;28;20053;-75
2023/07/14 00:32:45;;;;;;;13.45;8.73;;;;;;;;;;5026864;28;20591;-75
2023/07/14 00:35:23;;;;;;;15.60;9.60;;;;;;;;;;5014181;28;20038;-75
2023/07/14 00:37:51;;;;;;;17.17;9.80;;;;;;;;;;5014363;28;20081;-75
2023/07/14 00:40:19;;;;;;;12.50;9.00;;;;;;;;;;5014264;28;20053;-75
2023/07/14 00:42:47;;;;;;;14.90;9.52;;;;;;;;;;5027503;28;20041;-75
2023/07/14 00:45:16;;;;;;;14.60;9.98;;;;;;;;;;5014605;28;20143;-76
2023/07/14 00:47:42;;;;;;;13.00;9.90;;;;;;;;;;5026647;28;20041;-75
2023/07/14 00:50:29;;;;;;;12.90;9.57;;;;;;;;;;5032270;28;20118;-75
2023/07/14 00:52:56;;;;;;;14.35;10.48;;;;;;;;;;5034185;28;20388;-75
2023/07/14 00:55:25;;;;;;;17.23;10.30;;;;;;;;;;5033438;28;20412;-75
2023/07/14 00:57:57;;;;;;;13.50;10.45;;;;;;;;;;5032811;28;20129;-75
2023/07/14 01:00:30;;;;;;;13.52;10.23;;;;;;;;;;5033426;28;20049;-75
2023/07/14 01:02:56;;;;;;;14.02;10.20;;;;;;;;;;5032601;28;20602;-75
2023/07/14 01:05:23;;;;;;;14.57;10.32;;;;;;;;;;5020029;28;20042;-75
2023/07/14 01:07:49;;;;;;;15.02;9.95;;;;;;;;;;5026157;28;20061;-75
2023/07/14 01:10:22;;;;;;;13.40;10.55;;;;;;;;;;5030411;28;20107;-75
2023/07/14 01:12:53;;;;;;;14.00;9.77;;;;;;;;;;5020685;28;20038;-75
2023/07/14 01:15:19;;;;;;;13.43;10.68;;;;;;;;;;5014639;28;20485;-75
2023/07/14 01:17:47;;;;;;;18.33;11.75;;;;;;;;;;5030653;28;20079;-75
2023/07/14 01:20:13;;;;;;;15.90;10.93;;;;;;;;;;5029824;28;20049;-75
2023/07/14 01:22:48;;;;;;;15.52;10.52;;;;;;;;;;5034779;28;20049;-75
2023/07/14 01:25:14;;;;;;;14.75;10.57;;;;;;;;;;5034128;28;20135;-75
2023/07/14 01:27:40;;;;;;;14.95;11.15;;;;;;;;;;5034084;28;20057;-75
2023/07/14 01:30:07;;;;;;;14.80;10.70;;;;;;;;;;5034090;28;20045;-75
2023/07/14 01:32:38;;;;;;;15.25;11.30;;;;;;;;;;5029509;28;20059;-75
2023/07/14 01:35:07;;;;;;;18.00;11.95;;;;;;;;;;5033852;28;20504;-75
2023/07/14 01:37:37;;;;;;;14.60;10.88;;;;;;;;;;5031151;28;20091;-75
2023/07/14 01:40:11;;;;;;;14.98;11.18;;;;;;;;;;5032919;28;20188;-75
2023/07/14 01:42:38;;;;;;;18.92;11.35;;;;;;;;;;5033698;28;20041;-75
2023/07/14 01:45:05;;;;;;;14.85;10.95;;;;;;;;;;5030484;28;20064;-75
2023/07/14 01:47:36;;;;;;;15.35;11.63;;;;;;;;;;5019031;28;20050;-75
2023/07/14 01:50:03;;;;;;;17.08;11.13;;;;;;;;;;5014624;28;20057;-75
2023/07/14 01:52:30;;;;;;;14.35;11.05;;;;;;;;;;5013835;28;20042;-75
2023/07/14 01:55:02;;;;;;;16.13;11.80;;;;;;;;;;5032462;28;20377;-75
2023/07/14 01:57:29;;;;;;;17.00;12.23;;;;;;;;;;5033616;28;20474;-75
2023/07/14 01:59:59;;;;;;;16.33;11.52;;;;;;;;;;5032361;28;20069;-75
2023/07/14 02:02:30;;;;;;;17.20;10.85;;;;;;;;;;5033099;28;20121;-75
2023/07/14 02:04:56;;;;;;;14.15;11.20;;;;;;;;;;5032270;28;20069;-75
2023/07/14 02:07:22;;;;;;;17.83;12.35;;;;;;;;;;5020285;28;20048;-75
2023/07/14 02:09:49;;;;;;;15.10;11.20;;;;;;;;;;5022379;28;20046;-75
2023/07/14 02:12:17;;;;;;;16.65;11.73;;;;;;;;;;5041221;28;20041;-75
2023/07/14 02:15:02;;;;;;;14.25;11.20;;;;;;;;;;5036121;28;20049;-75
2023/07/14 02:17:30;;;;;;;16.67;11.63;;;;;;;;;;5018038;28;20042;-75
2023/07/14 02:19:57;;;;;;;16.63;11.57;;;;;;;;;;5034813;28;20041;-75
2023/07/14 02:22:24;;;;;;;19.10;12.32;;;;;;;;;;5036781;28;20060;-75
2023/07/14 02:24:50;;;;;;;15.80;11.57;;;;;;;;;;5036277;28;20037;-75
2023/07/14 02:27:16;;;;;;;17.27;11.07;;;;;;;;;;5036236;28;20161;-75
2023/07/14 02:29:42;;;;;;;16.85;11.27;;;;;;;;;;5036569;28;20476;-75
2023/07/14 02:32:12;;;;;;;15.20;11.85;;;;;;;;;;5036260;28;20053;-75
2023/07/14 02:34:41;;;;;;;15.77;11.55;;;;;;;;;;5018265;28;20041;-75
2023/07/14 02:37:32;;;;;;;17.15;11.82;;;;;;;;;;5017357;28;20105;-75
2023/07/14 02:40:00;;;;;;;16.40;11.30;;;;;;;;;;5017359;28;20046;-75
2023/07/14 02:42:26;;;;;;;16.15;11.20;;;;;;;;;;5026836;28;20053;-75
2023/07/14 02:44:52;;;;;;;13.82;11.32;;;;;;;;;;5035532;28;20133;-75
2023/07/14 02:47:21;;;;;;;18.10;11.40;;;;;;;;;;5034192;28;20056;-75
2023/07/14 02:49:48;;;;;;;15.57;11.40;;;;;;;;;;5036749;28;20075;-75
2023/07/14 02:52:15;;;;;;;14.27;11.13;;;;;;;;;;5018965;28;20049;-75
2023/07/14 02:54:41;;;;;;;18.58;11.95;;;;;;;;;;5016902;28;20469;-75
2023/07/14 02:57:07;;;;;;;14.13;11.32;;;;;;;;;;5034963;28;20855;-75
2023/07/14 02:59:33;;;;;;;16.48;11.45;;;;;;;;;;5037034;28;20128;-75
2023/07/14 03:01:59;;;;;;;15.57;11.25;;;;;;;;;;5035463;28;20072;-75
2023/07/14 03:04:25;;;;;;;16.38;10.18;;;;;;;;;;5035390;28;20046;-75
2023/07/14 03:06:52;;;;;;;15.82;10.48;;;;;;;;;;5034438;28;20183;-75
2023/07/14 03:09:18;;;;;;;14.73;10.55;;;;;;;;;;5036169;28;20060;-75
2023/07/14 03:11:44;;;;;;;16.63;10.57;;;;;;;;;;5036432;28;20037;-75
2023/07/14 03:14:10;;;;;;;16.65;10.50;;;;;;;;;;5018944;28;20050;-75
2023/07/14 03:16:37;;;;;;;36.40;10.48;;;;;;;;;;5029147;28;20104;-75
2023/07/14 03:19:03;;;;;;;14.68;10.00;;;;;;;;;;5035182;28;20120;-75
2023/07/14 03:21:29;;;;;;;15.35;10.25;;;;;;;;;;5035372;28;20044;-75
2023/07/14 03:23:55;;;;;;;14.73;9.98;;;;;;;;;;5027068;28;20440;-75
2023/07/14 03:26:21;;;;;;;21.58;10.25;;;;;;;;;;5033281;28;20080;-75
2023/07/14 03:28:47;;;;;;;15.38;9.90;;;;;;;;;;5035393;28;20401;-75
2023/07/14 03:31:14;;;;;;;19.92;9.75;;;;;;;;;;5035223;28;20077;-75
2023/07/14 03:33:40;;;;;;;14.32;9.27;;;;;;;;;;5035466;28;20385;-75
2023/07/14 03:36:12;;;;;;;14.07;9.30;;;;;;;;;;5035466;28;20476;-75
2023/07/14 03:38:40;;;;;;;13.13;9.57;;;;;;;;;;5034859;28;20443;-75
2023/07/14 03:41:06;;;;;;;13.35;8.80;;;;;;;;;;5027900;28;20049;-75
2023/07/14 03:43:32;;;;;;;15.82;9.30;;;;;;;;;;5028956;28;20049;-75
2023/07/14 03:45:58;;;;;;;16.00;9.25;;;;;;;;;;5024868;28;20037;-75
2023/07/14 03:48:24;;;;;;;17.27;10.75;;;;;;;;;;5029056;28;20037;-75
2023/07/14 03:50:50;;;;;;;20.27;9.20;;;;;;;;;;5034862;28;20057;-75
2023/07/14 03:53:16;;;;;;;19.20;9.68;;;;;;;;;;5035220;28;20124;-75
2023/07/14 03:55:43;;;;;;;13.70;9.82;;;;;;;;;;5019501;28;20045;-75
2023/07/14 03:58:09;;;;;;;14.38;8.40;;;;;;;;;;5015480;28;20049;-75
2023/07/14 04:00:35;;;;;;;12.35;8.27;;;;;;;;;;5020429;28;20122;-75
2023/07/14 04:03:01;;;;;;;15.10;8.18;;;;;;;;;;5034588;28;20105;-75
2023/07/14 04:05:28;;;;;;;13.20;8.32;;;;;;;;;;5027027;28;20041;-75
2023/07/14 04:07:54;;;;;;;13.13;8.68;;;;;;;;;;5014994;28;20104;-75
2023/07/14 04:10:20;;;;;;;12.88;7.72;;;;;;;;;;5018069;28;20033;-75
2023/07/14 04:12:49;;;;;;;14.20;8.25;;;;;;;;;;5028287;28;20560;-75
2023/07/14 04:15:16;;;;;;;18.00;7.60;;;;;;;;;;5034853;28;20045;-75
2023/07/14 04:17:42;;;;;;;12.23;8.25;;;;;;;;;;5027109;28;20042;-75
2023/07/14 04:20:09;;;;;;;15.80;8.75;;;;;;;;;;5028518;28;20116;-75
2023/07/14 04:22:35;;;;;;;13.10;8.05;;;;;;;;;;5030274;28;20049;-75
2023/07/14 04:25:02;;;;;;;12.48;8.52;;;;;;;;;;5034597;28;20534;-75
2023/07/14 04:27:29;;;;;;;16.15;8.63;;;;;;;;;;5034093;28;20061;-75
2023/07/14 04:29:55;;;;;;;13.88;8.20;;;;;;;;;;5033937;28;20502;-75
2023/07/14 04:32:22;;;;;;;16.35;8.75;;;;;;;;;;5033448;28;20071;-75
2023/07/14 04:34:49;;;;;;;13.02;7.85;;;;;;;;;;5033519;28;20085;-75
2023/07/14 04:37:16;;;;;;;12.18;7.88;;;;;;;;;;5016116;28;20072;-75
2023/07/14 04:39:42;;;;;;;14.15;8.55;;;;;;;;;;5015689;28;20159;-75
2023/07/14 04:42:08;;;;;;;15.13;8.38;;;;;;;;;;5015323;28;20052;-75
2023/07/14 04:44:34;;;;;;;12.23;7.97;;;;;;;;;;5021632;28;20484;-75
2023/07/14 04:47:00;;;;;;;14.43;8.13;;;;;;;;;;5034039;28;20045;-75
2023/07/14 04:49:26;;;;;;;12.43;7.68;;;;;;;;;;5034101;28;20098;-75
2023/07/14 04:51:52;;;;;;;11.95;7.60;;;;;;;;;;5033701;28;20041;-75
2023/07/14 04:54:19;;;;;;;11.85;7.88;;;;;;;;;;5033743;28;20531;-75
2023/07/14 04:56:45;;;;;;;11.93;7.43;;;;;;;;;;5032763;28;20044;-75
2023/07/14 04:59:11;;;;;;;12.38;8.32;;;;;;;;;;5025281;28;20127;-75
2023/07/14 05:01:37;;;;;;;12.65;7.97;;;;;;;;;;5031312;28;20038;-75
2023/07/14 05:04:04;;;;;;;11.40;7.05;;;;;;;;;;5033205;28;20068;-75
2023/07/14 05:06:31;;;;;;;11.60;7.00;;;;;;;;;;5032000;28;20049;-75
2023/07/14 05:08:57;;;;;;;9.50;7.00;;;;;;;;;;5032843;28;20060;-75
2023/07/14 05:11:24;;;;;;;11.45;7.30;;;;;;;;;;5018856;28;20056;-75
2023/07/14 05:13:53;;;;;;;12.63;7.25;;;;;;;;;;5021236;28;20049;-75
2023/07/14 05:16:20;;;;;;;9.68;6.95;;;;;;;;;;5029109;28;20111;-75
2023/07/14 05:18:46;;;;;;;9.75;6.82;;;;;;;;;;5032798;28;20041;-76
2023/07/14 05:21:12;;;;;;;11.88;6.95;;;;;;;;;;5028414;28;20088;-76
2023/07/14 05:23:39;;;;;;;10.45;6.90;;;;;;;;;;5012493;28;20057;-75
2023/07/14 05:26:05;;;;;;;9.60;7.00;;;;;;;;;;5013604;28;20045;-76
2023/07/14 05:28:32;;;;;;;12.60;7.43;;;;;;;;;;5013606;28;20096;-76
2023/07/14 05:30:58;;;;;;;10.75;6.40;;;;;;;;;;5030203;28;20417;-75
2023/07/14 05:33:25;;;;;;;11.77;6.72;;;;;;;;;;5033490;28;20042;-76
2023/07/14 05:35:51;;;;;;;9.43;6.05;;;;;;;;;;5031014;28;20045;-76
2023/07/14 05:38:18;;;;;;;10.93;6.22;;;;;;;;;;5032281;28;20361;-76
2023/07/14 05:40:51;;;;;;;10.88;7.07;;;;;;;;;;5032888;28;20054;-76
2023/07/14 05:43:17;;;;;;;10.27;6.53;;;;;;;;;;5034046;28;20116;-75
2023/07/14 05:45:47;;;;;;;11.98;6.72;;;;;;;;;;5037506;28;20056;-75
2023/07/14 05:48:14;;;;;;;11.18;6.22;;;;;;;;;;5038266;28;20053;-75
2023/07/14 05:50:40;;;;;;;10.98;6.28;;;;;;;;;;5035321;28;20053;-75
2023/07/14 05:53:07;;;;;;;10.10;6.25;;;;;;;;;;5018728;28;20038;-75
2023/07/14 05:55:33;;;;;;;9.77;6.43;;;;;;;;;;5018375;28;20137;-75
2023/07/14 05:57:59;;;;;;;9.27;5.50;;;;;;;;;;5022149;28;20045;-76
2023/07/14 06:00:25;;;;;;;14.52;5.95;;;;;;;;;;5034313;28;20136;-76
2023/07/14 06:02:51;;;;;;;10.20;6.45;;;;;;;;;;5041294;28;20049;-76
2023/07/14 06:05:19;;;;;;;10.98;6.05;;;;;;;;;;5035967;28;20139;-76
2023/07/14 06:07:45;;;;;;;10.13;5.80;;;;;;;;;;5036942;28;20054;-76
2023/07/14 06:10:12;;;;;;;11.23;5.15;;;;;;;;;;5027798;28;20125;-76
2023/07/14 06:12:38;;;;;;;11.02;5.35;;;;;;;;;;5016864;28;20034;-76
2023/07/14 06:15:05;;;;;;;11.35;5.75;;;;;;;;;;5028522;28;20045;-75
2023/07/14 06:17:31;;;;;;;10.68;5.43;;;;;;;;;;5036873;28;20150;-76
2023/07/14 06:19:57;;;;;;;8.60;5.00;;;;;;;;;;5032890;28;20037;-76
2023/07/14 06:22:23;;;;;;;10.13;5.47;;;;;;;;;;5035485;28;20112;-76
2023/07/14 06:24:49;;;;;;;8.43;4.80;;;;;;;;;;5035667;28;20053;-76
2023/07/14 06:27:16;;;;;;;8.70;5.40;;;;;;;;;;5036922;28;20041;-76
2023/07/14 06:29:43;;;;;;;8.40;4.70;;;;;;;;;;5036645;28;20071;-75
2023/07/14 06:32:09;;;;;;;8.10;4.88;;;;;;;;;;5036712;28;20083;-76
2023/07/14 06:34:35;;;;;;;8.10;5.30;;;;;;;;;;5037234;28;20050;-80
2023/07/14 06:37:01;;;;;;;7.93;4.53;;;;;;;;;;5034449;28;20049;-77
2023/07/14 06:39:27;;;;;;;9.43;5.05;;;;;;;;;;5035244;28;20065;-77
2023/07/14 06:41:53;;;;;;;9.43;4.50;;;;;;;;;;5035908;28;20041;-77
2023/07/14 06:44:20;;;;;;;7.10;4.80;;;;;;;;;;5036250;28;20077;-77
2023/07/14 06:46:46;;;;;;;6.55;4.32;;;;;;;;;;5035100;28;20060;-76
2023/07/14 06:49:12;;;;;;;7.95;4.22;;;;;;;;;;5035753;28;20357;-76
2023/07/14 06:51:38;;;;;;;7.15;4.40;;;;;;;;;;5026269;28;20050;-76
2023/07/14 06:54:04;;;;;;;6.85;4.40;;;;;;;;;;5035918;28;20065;-76
2023/07/14 06:56:30;;;;;;;9.88;4.95;;;;;;;;;;5034397;28;20044;-76
2023/07/14 06:58:56;;;;;;;10.07;4.78;;;;;;;;;;5034264;28;20052;-76
2023/07/14 07:01:22;;;;;;;9.45;4.53;;;;;;;;;;5034956;28;20436;-76
2023/07/14 07:03:49;;;;;;;7.05;4.82;;;;;;;;;;5035572;28;20057;-76
2023/07/14 07:06:16;;;;;;;7.90;4.97;;;;;;;;;;5026717;28;20050;-76
2023/07/14 07:08:42;;;;;;;9.50;5.15;;;;;;;;;;5020134;28;20484;-76
2023/07/14 07:11:10;;;;;;;10.75;5.20;;;;;;;;;;5034158;28;20139;-76
2023/07/14 07:13:36;;;;;;;8.25;4.95;;;;;;;;;;5034545;28;20069;-76
2023/07/14 07:16:02;;;;;;;9.68;5.68;;;;;;;;;;5034120;28;20041;-76
2023/07/14 07:18:28;;;;;;;9.98;5.05;;;;;;;;;;5028258;28;20050;-76
2023/07/14 07:20:55;;;;;;;9.27;5.00;;;;;;;;;;5014156;28;20061;-76
2023/07/14 07:23:21;;;;;;;9.15;5.40;;;;;;;;;;5027812;28;20484;-76
2023/07/14 07:25:51;;;;;;;7.28;4.70;;;;;;;;;;5029483;28;20477;-76
2023/07/14 07:28:18;;;;;;;6.82;4.93;;;;;;;;;;5015295;28;20384;-76
2023/07/14 07:30:45;;;;;;;12.20;4.93;;;;;;;;;;5019814;28;20123;-76
2023/07/14 07:33:11;;;;;;;8.07;4.38;;;;;;;;;;5015471;28;20077;-76
2023/07/14 07:35:38;;;;;;;9.45;5.00;;;;;;;;;;5026113;28;20061;-76
2023/07/14 07:38:04;;;;;;;7.82;4.78;;;;;;;;;;5016389;28;20408;-76
2023/07/14 07:40:31;;;;;;;7.65;4.40;;;;;;;;;;5030947;28;20091;-76
2023/07/14 07:42:57;;;;;;;10.93;5.13;;;;;;;;;;5026344;28;20038;-76
2023/07/14 07:45:23;;;;;;;8.40;4.68;;;;;;;;;;5030765;28;20052;-76
2023/07/14 07:47:50;;;;;;;10.15;5.85;;;;;;;;;;5018331;28;20060;-76
2023/07/14 07:50:16;;;;;;;8.13;5.00;;;;;;;;;;5034092;28;20056;-76
2023/07/14 07:52:42;;;;;;;7.32;5.10;;;;;;;;;;5034697;28;20045;-76
2023/07/14 07:55:08;;;;;;;8.88;4.80;;;;;;;;;;5034376;28;20428;-76
2023/07/14 07:57:34;;;;;;;7.50;4.15;;;;;;;;;;5035011;28;20048;-77
2023/07/14 08:00:00;;;;;;;6.53;4.07;;;;;;;;;;5024664;28;20065;-77
2023/07/14 08:02:26;;;;;;;8.38;5.07;;;;;;;;;;5032632;28;20045;-79
2023/07/14 08:04:52;;;;;;;5.78;3.83;;;;;;;;;;5025211;28;20049;-80
2023/07/14 08:07:19;;;;;;;5.13;3.67;;;;;;;;;;5025663;28;20219;-80
2023/07/14 08:09:45;;;;;;;5.53;4.03;;;;;;;;;;5035308;28;20526;-80
2023/07/14 08:12:11;;;;;;;6.60;3.60;;;;;;;;;;5034907;28;20545;-80
2023/07/14 08:14:50;;;;;;;6.63;3.85;;;;;;;;;;5039519;28;20041;-80
2023/07/14 08:17:16;;;;;;;6.68;4.00;;;;;;;;;;5042055;28;20088;-80
2023/07/14 08:19:43;;;;;;;7.80;4.43;;;;;;;;;;5032494;28;20038;-81
2023/07/14 08:22:09;;;;;;;6.95;4.65;;;;;;;;;;5035180;28;20534;-82
2023/07/14 08:24:35;;;;;;;12.43;4.13;;;;;;;;;;5040865;28;20091;-81
2023/07/14 08:27:01;;;;;;;6.05;3.70;;;;;;;;;;5040412;28;20037;-81
2023/07/14 08:29:27;;;;;;;5.15;3.35;;;;;;;;;;5033233;28;20385;-82
2023/07/14 08:31:53;;;;;;;5.60;3.58;;;;;;;;;;5031775;28;20044;-82
2023/07/14 08:34:19;;;;;;;6.90;3.80;;;;;;;;;;5042185;28;20046;-82
2023/07/14 08:36:48;;;;;;;5.85;3.60;;;;;;;;;;5040909;28;20041;-79
2023/07/14 08:39:15;;;;;;;6.32;3.75;;;;;;;;;;5037866;28;20056;-79
2023/07/14 08:41:45;;;;;;;5.95;3.72;;;;;;;;;;5035755;28;20069;-80
2023/07/14 08:44:12;;;;;;;6.93;4.30;;;;;;;;;;5033261;28;20076;-81
2023/07/14 08:46:45;;;;;;;5.65;3.47;;;;;;;;;;5038565;28;20046;-79
2023/07/14 08:49:20;;;;;;;5.28;3.58;;;;;;;;;;5037726;28;20037;-79
2023/07/14 08:51:51;;;;;;;6.22;3.78;;;;;;;;;;5038734;28;20045;-79
2023/07/14 08:54:20;;;;;;;4.68;3.30;;;;;;;;;;5037707;28;20088;-79
2023/07/14 08:56:46;;;;;;;5.88;3.78;;;;;;;;;;5030287;28;20125;-78
2023/07/14 08:59:33;;;;;;;7.28;3.78;;;;;;;;;;5031553;28;20208;-79
2023/07/14 09:02:00;;;;;;;8.02;3.70;;;;;;;;;;5017823;28;20088;-79
2023/07/14 09:04:30;;;;;;;6.43;4.10;;;;;;;;;;5016711;28;20480;-79
2023/07/14 09:06:56;;;;;;;7.63;4.07;;;;;;;;;;5034207;28;20124;-79
2023/07/14 09:09:25;;;;;;;7.10;4.18;;;;;;;;;;5039134;28;20045;-79
2023/07/14 09:12:01;;;;;;;5.05;3.35;;;;;;;;;;5033403;28;20046;-79
2023/07/14 09:14:34;;;;;;;7.63;4.32;;;;;;;;;;5035966;28;20468;-79
2023/07/14 09:17:00;;;;;;;6.90;3.85;;;;;;;;;;5025660;28;20072;-79
2023/07/14 09:19:40;;;;;;;6.78;3.60;;;;;;;;;;5032044;28;20053;-79
2023/07/14 09:22:19;;;;;;;6.00;3.90;;;;;;;;;;5037407;28;20436;-79
2023/07/14 09:24:48;;;;;;;6.25;3.90;;;;;;;;;;5032919;28;20404;-79
2023/07/14 09:27:19;;;;;;;6.05;3.67;;;;;;;;;;5018364;28;20042;-81
2023/07/14 09:29:46;;;;;;;5.30;4.10;;;;;;;;;;5031433;28;20059;-82
2023/07/14 09:32:20;;;;;;;6.28;3.42;;;;;;;;;;5027393;28;20050;-77
2023/07/14 09:35:01;;;;;;;5.72;4.07;;;;;;;;;;5021587;28;20049;-76
2023/07/14 09:37:32;;;;;;;5.75;4.15;;;;;;;;;;5032689;28;20048;-77
2023/07/14 09:40:18;;;;;;;6.88;4.03;;;;;;;;;;5032189;28;20041;-76
2023/07/14 09:42:46;;;;;;;6.85;4.22;;;;;;;;;;5020592;28;20099;-76
2023/07/14 09:45:17;;;;;;;6.53;4.35;;;;;;;;;;5032657;28;20052;-76
2023/07/14 09:47:45;;;;;;;7.43;3.97;;;;;;;;;;5027791;28;20057;-76
2023/07/14 09:50:16;;;;;;;5.93;3.60;;;;;;;;;;5034969;28;20042;-76
2023/07/14 09:52:50;;;;;;;6.80;3.78;;;;;;;;;;5042030;28;20045;-76
2023/07/14 09:55:19;;;;;;;7.28;4.25;;;;;;;;;;5037630;28;20053;-75
2023/07/14 09:57:46;;;;;;;6.63;3.42;;;;;;;;;;5018690;28;20100;-76
2023/07/14 10:00:19;;;;;;;6.35;3.65;;;;;;;;;;5030990;28;20413;-76
2023/07/14 10:02:50;;;;;;;6.18;3.80;;;;;;;;;;5027198;28;20050;-75
2023/07/14 10:05:22;;;;;;;10.10;4.20;;;;;;;;;;5030764;28;20105;-75
2023/07/14 10:07:49;;;;;;;7.22;3.88;;;;;;;;;;5031347;28;20067;-76
2023/07/14 10:10:24;;;;;;;5.80;3.72;;;;;;;;;;5029723;28;20490;-75
2023/07/14 10:12:50;;;;;;;6.68;4.13;;;;;;;;;;5032075;28;20124;-75
2023/07/14 10:15:23;;;;;;;5.60;3.85;;;;;;;;;;5033536;28;20069;-75
2023/07/14 10:17:53;;;;;;;8.02;4.15;;;;;;;;;;5031973;28;20442;-75
2023/07/14 10:20:21;;;;;;;7.43;4.38;;;;;;;;;;5032750;28;20071;-75
2023/07/14 10:22:50;;;;;;;6.35;4.00;;;;;;;;;;5032404;28;20112;-76
2023/07/14 10:25:17;;;;;;;6.65;3.72;;;;;;;;;;5032236;28;20049;-76
2023/07/14 10:27:50;;;;;;;5.65;4.03;;;;;;;;;;5030444;28;20060;-76
2023/07/14 10:30:31;;;;;;;4.80;3.20;;;;;;;;;;5026733;28;20411;-76
2023/07/14 10:32:59;;;;;;;5.20;3.40;;;;;;;;;;5025826;28;20053;-76
2023/07/14 10:35:30;;;;;;;6.47;4.28;;;;;;;;;;5036048;28;20041;-76
2023/07/14 10:37:59;;;;;;;6.03;3.90;;;;;;;;;;5028363;28;20088;-76
2023/07/14 10:40:27;;;;;;;6.32;3.28;;;;;;;;;;5035713;28;20406;-76
2023/07/14 10:43:03;;;;;;;6.15;3.45;;;;;;;;;;5035922;28;20041;-75
2023/07/14 10:45:29;;;;;;;;;;;;;;;;;;5021809;28;20554;-75
2023/07/14 10:47:55;;;;;;;;;;;;;;;;;;5033311;28;19970;-76
2023/07/14 10:50:25;;;;;;;7.10;3.80;;;;;;;;;;5035760;28;19920;-77
2023/07/14 10:52:59;;;;;;;6.35;3.80;;;;;;;;;;5036347;28;20061;-75
2023/07/14 10:55:28;;;;;;;6.65;4.30;;;;;;;;;;5019184;28;20404;-76
2023/07/14 10:57:59;;;;;;;5.72;3.60;;;;;;;;;;5033205;28;20118;-77
2023/07/14 11:00:25;;;;;;;5.15;3.53;;;;;;;;;;5035325;28;20038;-76
2023/07/14 11:03:10;;;;;;;6.45;3.70;;;;;;;;;;5035541;28;20049;-79
2023/07/14 11:05:38;;;;;;;5.50;3.25;;;;;;;;;;5026971;28;20073;-76
2023/07/14 11:08:04;;;;;;;6.15;3.25;;;;;;;;;;5036264;28;20045;-77
2023/07/14 11:10:30;;;;;;;5.05;3.05;;;;;;;;;;5035347;28;20083;-77
2023/07/14 11:13:09;;;;;;;5.75;3.50;;;;;;;;;;5034575;28;20048;-77
2023/07/14 11:15:39;;;;;;;5.43;3.05;;;;;;;;;;5035341;28;20106;-77
2023/07/14 11:18:24;;;;;;;3.72;2.95;;;;;;;;;;5035064;28;20445;-77
2023/07/14 11:21:00;;;;;;;5.15;3.20;;;;;;;;;;5032482;28;20041;-77
2023/07/14 11:23:35;;;;;;;5.00;3.20;;;;;;;;;;5034134;28;20049;-77
2023/07/14 11:26:06;;;;;;;5.15;3.20;;;;;;;;;;5029223;28;20052;-77
2023/07/14 11:28:52;;;;;;;5.65;3.45;;;;;;;;;;5018649;28;20045;-77
2023/07/14 11:31:24;;;;;;;4.95;3.35;;;;;;;;;;5024053;28;20053;-77
2023/07/14 11:34:13;;;;;;;4.53;3.53;;;;;;;;;;5033115;28;20037;-77
2023/07/14 11:36:43;;;;;;;3.78;3.17;;;;;;;;;;5016700;28;20049;-77
2023/07/14 11:39:18;;;;;;;5.53;3.30;;;;;;;;;;5015403;28;20054;-77
2023/07/14 11:41:45;;;;;;;8.30;3.50;;;;;;;;;;5025302;28;20052;-77
2023/07/14 11:44:14;;;;;;;5.40;3.45;;;;;;;;;;5015239;28;20389;-78
2023/07/14 11:46:40;;;;;;;6.20;4.40;;;;;;;;;;5014991;28;20046;-77
2023/07/14 11:49:08;;;;;;;6.28;4.00;;;;;;;;;;5015025;28;20045;-77
2023/07/14 11:51:51;;;;;;;6.18;4.13;;;;;;;;;;5026127;28;20364;-77
2023/07/14 11:54:24;;;;;;;6.50;3.90;;;;;;;;;;5026173;28;20041;-77
2023/07/14 11:57:01;;;;;;;6.85;3.83;;;;;;;;;;5034360;28;20080;-76
2023/07/14 11:59:32;;;;;;;6.95;4.57;;;;;;;;;;5034315;28;20474;-77
2023/07/14 12:02:17;;;;;;;5.72;4.10;;;;;;;;;;5034441;28;20149;-77
2023/07/14 12:04:56;;;;;;;7.07;4.10;;;;;;;;;;5033106;28;20480;-77
2023/07/14 12:07:22;;;;;;;7.28;4.18;;;;;;;;;;5034108;28;20132;-77
2023/07/14 12:09:59;;;;;;;5.57;4.10;;;;;;;;;;5034256;28;20049;-77
2023/07/14 12:12:26;;;;;;;5.72;4.20;;;;;;;;;;5033209;28;20156;-77
2023/07/14 12:14:52;;;;;;;6.25;4.03;;;;;;;;;;5025223;28;20108;-77
2023/07/14 12:17:37;;;;;;;5.50;3.70;;;;;;;;;;5030501;28;20044;-77
2023/07/14 12:20:15;;;;;;;6.78;4.35;;;;;;;;;;5029643;28;20053;-77
2023/07/14 12:22:53;;;;;;;4.55;3.63;;;;;;;;;;5025922;28;20472;-77
2023/07/14 12:25:21;;;;;;;6.32;4.07;;;;;;;;;;5019377;28;20085;-76
2023/07/14 12:27:49;;;;;;;6.40;4.13;;;;;;;;;;5033673;28;20132;-76
2023/07/14 12:30:22;;;;;;;8.30;4.18;;;;;;;;;;5034547;28;20088;-76
2023/07/14 12:32:48;;;;;;;5.68;3.53;;;;;;;;;;5032399;28;20441;-76
2023/07/14 12:35:16;;;;;;;5.18;4.00;;;;;;;;;;5033038;28;20510;-76
2023/07/14 12:37:42;;;;;;;6.32;4.22;;;;;;;;;;5033567;28;20404;-77
2023/07/14 12:40:22;;;;;;;7.05;3.95;;;;;;;;;;5033835;28;20073;-77
2023/07/14 12:42:50;;;;;;;6.45;4.18;;;;;;;;;;5029418;28;20107;-76
2023/07/14 12:45:17;;;;;;;6.43;4.50;;;;;;;;;;5029223;28;20049;-76
2023/07/14 12:47:46;;;;;;;8.07;4.10;;;;;;;;;;5024816;28;20427;-75
2023/07/14 12:50:17;;;;;;;8.65;4.72;;;;;;;;;;5018281;28;20053;-76
2023/07/14 12:52:47;;;;;;;6.30;4.00;;;;;;;;;;5022963;28;20442;-78
2023/07/14 12:55:15;;;;;;;7.13;4.45;;;;;;;;;;5034136;28;20099;-76
2023/07/14 12:57:42;;;;;;;7.07;4.63;;;;;;;;;;5033543;28;20416;-76
2023/07/14 13:00:19;;;;;;;9.30;4.53;;;;;;;;;;5033908;28;20048;-77
2023/07/14 13:02:45;;;;;;;7.28;4.50;;;;;;;;;;5025251;28;20127;-77
2023/07/14 13:05:12;;;;;;;6.85;4.40;;;;;;;;;;5013405;28;20038;-77
2023/07/14 13:07:41;;;;;;;7.63;4.78;;;;;;;;;;5029849;28;20412;-77
2023/07/14 13:10:10;;;;;;;9.60;5.53;;;;;;;;;;5033565;28;20089;-76
2023/07/14 13:12:36;;;;;;;6.93;5.53;;;;;;;;;;5033372;28;20081;-76
2023/07/14 13:15:03;;;;;;;10.90;5.93;;;;;;;;;;5033226;28;20044;-76
2023/07/14 13:17:30;;;;;;;7.97;6.25;;;;;;;;;;5033133;28;20041;-76
2023/07/14 13:20:07;;;;;;;7.97;5.70;;;;;;;;;;5032759;28;20053;-76
2023/07/14 13:22:36;;;;;;;6.72;5.80;;;;;;;;;;5033027;28;20119;-76
2023/07/14 13:25:09;;;;;;;8.38;5.70;;;;;;;;;;5032717;28;20353;-76
2023/07/14 13:27:39;;;;;;;8.70;6.13;;;;;;;;;;5032673;28;20103;-76
2023/07/14 13:30:19;;;;;;;7.72;6.05;;;;;;;;;;5032486;28;20496;-76
2023/07/14 13:32:52;;;;;;;8.95;5.78;;;;;;;;;;5032930;28;20056;-76
2023/07/14 13:35:31;;;;;;;8.55;6.35;;;;;;;;;;5032625;28;20053;-76
2023/07/14 13:38:01;;;;;;;9.77;5.93;;;;;;;;;;5033476;28;20045;-76
2023/07/14 13:40:33;;;;;;;7.93;5.90;;;;;;;;;;5032681;28;20053;-76
2023/07/14 13:43:01;;;;;;;7.13;5.40;;;;;;;;;;5029276;28;20046;-76
2023/07/14 13:45:32;;;;;;;10.90;5.80;;;;;;;;;;5017631;28;20503;-76
2023/07/14 13:47:58;;;;;;;12.45;6.28;;;;;;;;;;5023340;28;20056;-76
2023/07/14 13:50:25;;;;;;;9.10;6.15;;;;;;;;;;5024393;28;20084;-76
2023/07/14 13:52:51;;;;;;;7.85;5.78;;;;;;;;;;5033282;28;20045;-76
2023/07/14 13:55:19;;;;;;;8.57;6.22;;;;;;;;;;5031637;28;20095;-76
2023/07/14 13:57:45;;;;;;;9.48;6.25;;;;;;;;;;5032026;28;20429;-76
2023/07/14 14:00:16;;;;;;;8.98;5.70;;;;;;;;;;5030796;28;20041;-76
2023/07/14 14:02:43;;;;;;;12.50;6.18;;;;;;;;;;5032036;28;20045;-76
2023/07/14 14:05:21;;;;;;;8.18;5.45;;;;;;;;;;5034946;28;20140;-77
2023/07/14 14:07:48;;;;;;;7.75;5.35;;;;;;;;;;5036132;28;20471;-77
2023/07/14 14:10:15;;;;;;;6.80;5.63;;;;;;;;;;5036947;28;20052;-76
2023/07/14 14:12:42;;;;;;;8.60;5.72;;;;;;;;;;5036828;28;20088;-76
2023/07/14 14:15:13;;;;;;;10.10;5.55;;;;;;;;;;5030652;28;20050;-76
2023/07/14 14:17:41;;;;;;;8.05;5.63;;;;;;;;;;5016684;28;20045;-76
2023/07/14 14:20:13;;;;;;;8.70;5.88;;;;;;;;;;5023691;28;20041;-76
2023/07/14 14:22:39;;;;;;;7.80;5.32;;;;;;;;;;5036236;28;20412;-76
2023/07/14 14:25:13;;;;;;;8.35;5.28;;;;;;;;;;5032387;28;20447;-76
2023/07/14 14:27:40;;;;;;;9.70;5.20;;;;;;;;;;5016769;28;20053;-76
2023/07/14 14:30:08;;;;;;;11.20;5.20;;;;;;;;;;5015382;28;20053;-76
2023/07/14 14:32:36;;;;;;;8.65;5.82;;;;;;;;;;5026322;28;20061;-76
2023/07/14 14:35:09;;;;;;;8.85;5.78;;;;;;;;;;5036245;28;20511;-76
2023/07/14 14:37:35;;;;;;;9.77;5.78;;;;;;;;;;5034641;28;20050;-76
2023/07/14 14:40:01;;;;;;;7.55;5.15;;;;;;;;;;5035971;28;20124;-76
2023/07/14 14:42:27;;;;;;;10.57;5.68;;;;;;;;;;5024197;28;20095;-76
2023/07/14 14:44:53;;;;;;;8.55;5.38;;;;;;;;;;5023872;28;20088;-76